EDT,Max TemperatureF,Mean TemperatureF,Min TemperatureF,Max Dew PointF,MeanDew PointF,Min DewpointF,Max Humidity, Mean Humidity, Min Humidity, Max Sea Level PressureIn, Mean Sea Level PressureIn, Min Sea Level PressureIn, Max VisibilityMiles, Mean VisibilityMiles, Min VisibilityMiles, Max Wind SpeedMPH, Mean Wind SpeedMPH, Max Gust SpeedMPH,PrecipitationIn, CloudCover, Events, WindDirDegrees
2012-10-1,69,54,41,55,46,39,100,88,54,29.94,29.89,29.78,10,5,0,8,2,,0.01,2,Fog-Rain,68
2012-10-2,84,69,57,69,64,55,100,86,65,29.87,29.80,29.75,10,8,2,10,3,,0.56,5,Rain,97
2012-10-3,73,68,63,65,62,60,94,81,62,30.14,30.05,29.88,10,10,9,8,3,18,0.39,6,Rain,248
2012-10-4,73,67,59,61,57,49,97,77,44,30.22,30.17,30.13,10,9,7,10,2,17,0.01,5,,265
2012-10-5,75,64,53,57,54,50,94,66,48,30.19,30.05,29.91,10,9,2,8,3,,0.00,1,,216
2012-10-6,64,54,44,54,46,33,94,78,40,30.11,29.99,29.84,10,8,2,12,5,21,0.01,5,Rain,278
2012-10-7,53,45,37,44,41,36,96,84,66,30.20,30.10,30.05,10,9,3,10,2,,0.01,6,Rain,302
2012-10-8,46,42,37,41,39,36,97,88,71,30.26,30.22,30.19,10,8,0,7,1,,0.00,6,Fog-Rain,152
2012-10-9,57,49,43,43,42,40,93,79,57,30.21,30.13,30.03,10,10,10,6,0,,0.00,6,,215
2012-10-10,57,49,41,47,41,30,97,73,53,30.19,30.02,29.96,10,10,7,16,6,21,0.01,5,,250
2012-10-11,59,44,32,35,30,27,88,62,35,30.33,30.25,30.17,10,10,9,9,2,,0.12,0,,239
2012-10-12,55,44,34,38,34,31,92,75,50,30.41,30.29,30.20,10,10,7,9,1,18,0.00,1,,347
2012-10-13,69,50,30,44,37,28,96,67,39,30.39,30.30,30.14,10,10,8,10,2,,0.01,1,,209
2012-10-14,77,64,53,55,50,44,77,56,46,30.12,29.98,29.78,10,10,10,15,6,24,0.00,3,,196
2012-10-15,70,58,48,59,50,43,90,80,57,29.93,29.82,29.70,10,9,2,18,11,30,0.19,8,Rain,270
2012-10-16,59,50,41,45,42,37,96,76,47,30.02,29.94,29.89,10,10,10,9,4,,0.00,5,,261
2012-10-17,73,54,37,47,41,35,93,64,35,29.94,29.86,29.75,10,10,6,7,1,,0.00,0,,163
2012-10-18,71,56,44,54,47,40,97,78,45,29.85,29.74,29.61,10,6,2,26,4,43,0.72,5,Rain,189
2012-10-19,66,54,44,47,43,33,100,76,31,29.82,29.73,29.59,10,7,0,16,3,25,0.01,4,Fog-Rain,204
2012-10-20,54,49,44,45,42,39,93,80,59,29.98,29.83,29.75,10,10,8,17,6,23,0.12,7,Rain,221
2012-10-21,59,47,37,43,40,35,100,78,49,30.17,30.12,29.99,10,9,1,8,1,,0.00,2,,209
2012-10-22,72,54,36,50,43,34,97,72,40,30.22,30.16,30.11,10,10,7,7,1,,0.01,0,,212
2012-10-23,75,63,51,55,51,48,89,67,43,30.12,30.08,30.04,10,10,10,13,2,18,0.00,4,,222
2012-10-24,75,65,55,54,51,47,89,69,40,30.17,30.11,30.07,10,10,10,8,1,,0.00,3,Rain,222
2012-10-25,82,65,48,52,48,42,93,61,33,30.12,30.06,30.00,10,9,5,7,1,,0.00,0,,173
2012-10-26,77,64,53,54,51,46,80,59,40,30.10,30.02,29.94,10,10,9,9,2,,0.00,2,,111
2012-10-27,60,54,48,52,49,45,97,89,72,29.99,29.95,29.91,10,6,2,10,6,,0.07,6,Rain,339
2012-10-28,46,44,42,45,43,41,100,94,87,29.95,29.85,29.81,10,5,2,10,7,,0.22,8,Rain,344
2012-10-29,43,40,37,41,38,34,100,90,85,29.81,29.61,29.23,10,6,2,23,9,30,1.38,8,Rain,304
2012-10-30,34,34,33,32,31,30,96,90,87,29.48,29.28,29.13,6,2,0,17,13,25,0.35,8,Fog-Snow,225
2012-10-31,39,36,33,37,34,32,100,91,87,29.74,29.62,29.49,10,5,2,14,11,20,0.41,8,Rain-Snow,227